Terminal Aerodrome Forecast
Issued by NWS

Current Version | Previous Version | Graphics & Text | Print | Product List | Glossary On
Versions: 1 2 3 4 5 6 7 8 9 10 11 12 13 14 15 16 17 18 19 20 21 22 23 24 25 26 27 28
254
FTUS41 KPBZ 091257 AAA
TAFHLG
TAF AMD
KHLG 091257Z 0913/1012 23004KT 1SM -SN BR SCT006 OVC015
      TEMPO 0913/0917 1/2SM -SN FG BKN005
     FM091700 27005KT 3SM -SHSN OVC010
     FM100100 30008KT P6SM BKN015=

USA.gov is the U.S. government's official web portal to all federal, state and local government web resources and services.